sensor_id;sensor_type;location;lat;lon;timestamp;P1;durP1;ratioP1;P2;durP2;ratioP2
6739;SDS011;3407;49.882;10.920;2022-11-14T00:00:56;15.93;;;10.47;;
6739;SDS011;3407;49.882;10.920;2022-11-14T00:05:51;13.93;;;10.07;;
6739;SDS011;3407;49.882;10.920;2022-11-14T00:10:47;14.30;;;10.53;;
6739;SDS011;3407;49.882;10.920;2022-11-14T00:15:47;15.17;;;11.37;;
6739;SDS011;3407;49.882;10.920;2022-11-14T00:20:48;14.00;;;10.13;;
6739;SDS011;3407;49.882;10.920;2022-11-14T00:25:45;16.17;;;10.57;;
6739;SDS011;3407;49.882;10.920;2022-11-14T00:30:40;15.47;;;10.60;;
6739;SDS011;3407;49.882;10.920;2022-11-14T00:35:39;13.93;;;10.20;;
6739;SDS011;3407;49.882;10.920;2022-11-14T00:40:35;20.30;;;11.73;;
6739;SDS011;3407;49.882;10.920;2022-11-14T00:45:31;14.00;;;10.67;;
6739;SDS011;3407;49.882;10.920;2022-11-14T00:50:26;17.47;;;11.70;;
6739;SDS011;3407;49.882;10.920;2022-11-14T00:55:22;17.73;;;10.97;;
6739;SDS011;3407;49.882;10.920;2022-11-14T01:00:17;18.43;;;11.27;;
6739;SDS011;3407;49.882;10.920;2022-11-14T01:05:13;16.70;;;10.97;;
6739;SDS011;3407;49.882;10.920;2022-11-14T01:10:08;16.53;;;11.30;;
6739;SDS011;3407;49.882;10.920;2022-11-14T01:15:04;19.80;;;12.30;;
6739;SDS011;3407;49.882;10.920;2022-11-14T01:20:00;15.10;;;11.00;;
6739;SDS011;3407;49.882;10.920;2022-11-14T01:24:56;15.93;;;10.87;;
6739;SDS011;3407;49.882;10.920;2022-11-14T01:29:54;18.20;;;12.20;;
6739;SDS011;3407;49.882;10.920;2022-11-14T01:34:50;15.03;;;11.33;;
6739;SDS011;3407;49.882;10.920;2022-11-14T01:39:46;19.03;;;11.83;;
6739;SDS011;3407;49.882;10.920;2022-11-14T01:49:45;19.13;;;11.43;;
6739;SDS011;3407;49.882;10.920;2022-11-14T01:54:50;17.77;;;12.27;;
6739;SDS011;3407;49.882;10.920;2022-11-14T01:59:49;21.97;;;11.90;;
6739;SDS011;3407;49.882;10.920;2022-11-14T02:04:50;19.17;;;12.30;;
6739;SDS011;3407;49.882;10.920;2022-11-14T02:09:51;20.97;;;13.40;;
6739;SDS011;3407;49.882;10.920;2022-11-14T02:14:48;19.30;;;12.67;;
6739;SDS011;3407;49.882;10.920;2022-11-14T02:19:53;19.03;;;12.57;;
6739;SDS011;3407;49.882;10.920;2022-11-14T02:24:51;24.17;;;13.57;;
6739;SDS011;3407;49.882;10.920;2022-11-14T02:29:47;18.33;;;12.30;;
6739;SDS011;3407;49.882;10.920;2022-11-14T02:34:42;19.50;;;13.40;;
6739;SDS011;3407;49.882;10.920;2022-11-14T02:39:38;18.03;;;11.97;;
6739;SDS011;3407;49.882;10.920;2022-11-14T02:44:34;17.73;;;11.70;;
6739;SDS011;3407;49.882;10.920;2022-11-14T02:49:29;18.23;;;11.30;;
6739;SDS011;3407;49.882;10.920;2022-11-14T02:54:25;23.37;;;12.40;;
6739;SDS011;3407;49.882;10.920;2022-11-14T02:59:21;18.97;;;11.97;;
6739;SDS011;3407;49.882;10.920;2022-11-14T03:04:17;22.53;;;12.97;;
6739;SDS011;3407;49.882;10.920;2022-11-14T03:09:12;21.17;;;13.10;;
6739;SDS011;3407;49.882;10.920;2022-11-14T03:14:08;19.37;;;12.30;;
6739;SDS011;3407;49.882;10.920;2022-11-14T03:19:03;19.77;;;11.67;;
6739;SDS011;3407;49.882;10.920;2022-11-14T03:23:59;25.07;;;11.67;;
6739;SDS011;3407;49.882;10.920;2022-11-14T03:28:54;20.43;;;12.13;;
6739;SDS011;3407;49.882;10.920;2022-11-14T03:33:50;18.50;;;11.67;;
6739;SDS011;3407;49.882;10.920;2022-11-14T03:38:45;21.47;;;12.50;;
6739;SDS011;3407;49.882;10.920;2022-11-14T03:43:41;20.50;;;13.40;;
6739;SDS011;3407;49.882;10.920;2022-11-14T03:48:37;20.87;;;13.27;;
6739;SDS011;3407;49.882;10.920;2022-11-14T03:53:32;18.47;;;12.53;;
6739;SDS011;3407;49.882;10.920;2022-11-14T03:58:28;18.27;;;12.60;;
6739;SDS011;3407;49.882;10.920;2022-11-14T04:03:24;19.73;;;12.90;;
6739;SDS011;3407;49.882;10.920;2022-11-14T04:08:19;21.10;;;12.27;;
6739;SDS011;3407;49.882;10.920;2022-11-14T04:13:15;18.60;;;12.10;;
6739;SDS011;3407;49.882;10.920;2022-11-14T04:18:10;20.37;;;12.80;;
6739;SDS011;3407;49.882;10.920;2022-11-14T04:23:06;18.30;;;12.83;;
6739;SDS011;3407;49.882;10.920;2022-11-14T04:28:02;21.37;;;12.47;;
6739;SDS011;3407;49.882;10.920;2022-11-14T04:32:57;20.10;;;12.37;;
6739;SDS011;3407;49.882;10.920;2022-11-14T04:37:53;18.43;;;11.77;;
6739;SDS011;3407;49.882;10.920;2022-11-14T04:42:48;17.87;;;12.00;;
6739;SDS011;3407;49.882;10.920;2022-11-14T04:47:44;18.83;;;12.50;;
6739;SDS011;3407;49.882;10.920;2022-11-14T04:52:39;21.13;;;12.33;;
6739;SDS011;3407;49.882;10.920;2022-11-14T04:57:35;22.03;;;12.97;;
6739;SDS011;3407;49.882;10.920;2022-11-14T05:02:30;24.37;;;14.53;;
6739;SDS011;3407;49.882;10.920;2022-11-14T05:07:26;20.47;;;12.70;;
6739;SDS011;3407;49.882;10.920;2022-11-14T05:12:22;19.57;;;13.20;;
6739;SDS011;3407;49.882;10.920;2022-11-14T05:17:17;20.60;;;11.97;;
6739;SDS011;3407;49.882;10.920;2022-11-14T05:22:13;20.53;;;13.60;;
6739;SDS011;3407;49.882;10.920;2022-11-14T05:27:08;20.27;;;13.07;;
6739;SDS011;3407;49.882;10.920;2022-11-14T05:32:04;23.73;;;13.67;;
6739;SDS011;3407;49.882;10.920;2022-11-14T05:37:00;23.03;;;13.60;;
6739;SDS011;3407;49.882;10.920;2022-11-14T05:41:57;19.77;;;12.83;;
6739;SDS011;3407;49.882;10.920;2022-11-14T05:46:53;15.60;;;12.23;;
6739;SDS011;3407;49.882;10.920;2022-11-14T05:51:48;15.63;;;11.73;;
6739;SDS011;3407;49.882;10.920;2022-11-14T05:56:44;21.17;;;13.00;;
6739;SDS011;3407;49.882;10.920;2022-11-14T06:01:39;22.27;;;12.90;;
6739;SDS011;3407;49.882;10.920;2022-11-14T06:06:35;23.37;;;13.23;;
6739;SDS011;3407;49.882;10.920;2022-11-14T06:11:30;19.77;;;13.07;;
6739;SDS011;3407;49.882;10.920;2022-11-14T06:16:26;19.93;;;12.50;;
6739;SDS011;3407;49.882;10.920;2022-11-14T06:21:22;21.63;;;13.90;;
6739;SDS011;3407;49.882;10.920;2022-11-14T06:26:20;21.63;;;13.90;;
6739;SDS011;3407;49.882;10.920;2022-11-14T06:31:20;20.07;;;12.93;;
6739;SDS011;3407;49.882;10.920;2022-11-14T06:36:17;22.37;;;13.10;;
6739;SDS011;3407;49.882;10.920;2022-11-14T06:41:13;19.70;;;13.13;;
6739;SDS011;3407;49.882;10.920;2022-11-14T06:46:11;19.33;;;12.27;;
6739;SDS011;3407;49.882;10.920;2022-11-14T06:51:12;23.03;;;13.40;;
6739;SDS011;3407;49.882;10.920;2022-11-14T06:56:10;24.60;;;14.53;;
6739;SDS011;3407;49.882;10.920;2022-11-14T07:01:09;22.90;;;14.67;;
6739;SDS011;3407;49.882;10.920;2022-11-14T07:06:20;20.17;;;13.07;;
6739;SDS011;3407;49.882;10.920;2022-11-14T07:11:19;21.77;;;13.77;;
6739;SDS011;3407;49.882;10.920;2022-11-14T07:16:17;23.43;;;13.63;;
6739;SDS011;3407;49.882;10.920;2022-11-14T07:21:13;26.73;;;15.40;;
6739;SDS011;3407;49.882;10.920;2022-11-14T07:26:09;22.67;;;15.07;;
6739;SDS011;3407;49.882;10.920;2022-11-14T07:31:05;20.53;;;13.93;;
6739;SDS011;3407;49.882;10.920;2022-11-14T07:36:03;23.33;;;14.10;;
6739;SDS011;3407;49.882;10.920;2022-11-14T07:41:00;22.43;;;14.33;;
6739;SDS011;3407;49.882;10.920;2022-11-14T07:45:58;25.87;;;15.23;;
6739;SDS011;3407;49.882;10.920;2022-11-14T07:51:01;24.03;;;14.93;;
6739;SDS011;3407;49.882;10.920;2022-11-14T07:56:03;22.17;;;13.80;;
6739;SDS011;3407;49.882;10.920;2022-11-14T08:01:00;24.23;;;14.07;;
6739;SDS011;3407;49.882;10.920;2022-11-14T08:06:00;15.77;;;11.70;;
6739;SDS011;3407;49.882;10.920;2022-11-14T08:10:56;22.83;;;14.10;;
6739;SDS011;3407;49.882;10.920;2022-11-14T08:15:53;19.93;;;13.00;;
6739;SDS011;3407;49.882;10.920;2022-11-14T08:20:49;22.97;;;15.20;;
6739;SDS011;3407;49.882;10.920;2022-11-14T08:25:44;21.97;;;13.47;;
6739;SDS011;3407;49.882;10.920;2022-11-14T08:30:40;19.93;;;12.83;;
6739;SDS011;3407;49.882;10.920;2022-11-14T08:35:36;20.20;;;13.03;;
6739;SDS011;3407;49.882;10.920;2022-11-14T08:40:31;17.73;;;12.63;;
6739;SDS011;3407;49.882;10.920;2022-11-14T08:45:27;15.23;;;10.83;;
6739;SDS011;3407;49.882;10.920;2022-11-14T08:50:24;16.57;;;10.33;;
6739;SDS011;3407;49.882;10.920;2022-11-14T08:55:19;16.80;;;10.90;;
6739;SDS011;3407;49.882;10.920;2022-11-14T09:00:15;16.57;;;10.13;;
6739;SDS011;3407;49.882;10.920;2022-11-14T09:05:11;13.90;;;10.00;;
6739;SDS011;3407;49.882;10.920;2022-11-14T09:10:07;12.83;;;8.93;;
6739;SDS011;3407;49.882;10.920;2022-11-14T09:15:02;13.70;;;9.50;;
6739;SDS011;3407;49.882;10.920;2022-11-14T09:19:58;12.27;;;9.80;;
6739;SDS011;3407;49.882;10.920;2022-11-14T09:24:54;17.60;;;9.53;;
6739;SDS011;3407;49.882;10.920;2022-11-14T09:29:49;12.53;;;9.43;;
6739;SDS011;3407;49.882;10.920;2022-11-14T09:34:45;12.03;;;9.20;;
6739;SDS011;3407;49.882;10.920;2022-11-14T09:39:42;12.43;;;8.70;;
6739;SDS011;3407;49.882;10.920;2022-11-14T09:55:11;11.23;;;8.90;;
6739;SDS011;3407;49.882;10.920;2022-11-14T10:20:52;11.27;;;8.13;;
6739;SDS011;3407;49.882;10.920;2022-11-14T10:25:58;9.80;;;8.13;;
6739;SDS011;3407;49.882;10.920;2022-11-14T10:36:27;13.23;;;8.20;;
6739;SDS011;3407;49.882;10.920;2022-11-14T10:41:35;12.70;;;7.33;;
6739;SDS011;3407;49.882;10.920;2022-11-14T10:46:36;10.60;;;7.50;;
6739;SDS011;3407;49.882;10.920;2022-11-14T10:51:39;9.30;;;7.37;;
6739;SDS011;3407;49.882;10.920;2022-11-14T10:56:52;7.97;;;6.37;;
6739;SDS011;3407;49.882;10.920;2022-11-14T11:06:44;7.87;;;6.70;;
6739;SDS011;3407;49.882;10.920;2022-11-14T11:11:40;8.23;;;7.07;;
6739;SDS011;3407;49.882;10.920;2022-11-14T11:16:45;8.40;;;7.27;;
6739;SDS011;3407;49.882;10.920;2022-11-14T11:21:48;6.33;;;5.73;;
6739;SDS011;3407;49.882;10.920;2022-11-14T11:26:46;7.00;;;5.73;;
6739;SDS011;3407;49.882;10.920;2022-11-14T11:31:48;7.73;;;5.93;;
6739;SDS011;3407;49.882;10.920;2022-11-14T11:36:47;6.70;;;5.40;;
6739;SDS011;3407;49.882;10.920;2022-11-14T11:41:54;5.60;;;4.63;;
6739;SDS011;3407;49.882;10.920;2022-11-14T11:46:54;6.37;;;5.00;;
6739;SDS011;3407;49.882;10.920;2022-11-14T11:51:54;7.67;;;5.50;;
6739;SDS011;3407;49.882;10.920;2022-11-14T11:56:59;7.10;;;5.23;;
6739;SDS011;3407;49.882;10.920;2022-11-14T12:02:13;6.57;;;4.80;;
6739;SDS011;3407;49.882;10.920;2022-11-14T12:07:19;5.20;;;4.70;;
6739;SDS011;3407;49.882;10.920;2022-11-14T12:12:41;5.03;;;4.47;;
6739;SDS011;3407;49.882;10.920;2022-11-14T12:28:13;5.50;;;4.87;;
6739;SDS011;3407;49.882;10.920;2022-11-14T12:33:34;5.37;;;4.80;;
6739;SDS011;3407;49.882;10.920;2022-11-14T12:38:33;5.37;;;4.43;;
6739;SDS011;3407;49.882;10.920;2022-11-14T12:43:40;5.33;;;4.60;;
6739;SDS011;3407;49.882;10.920;2022-11-14T12:48:37;5.73;;;4.40;;
6739;SDS011;3407;49.882;10.920;2022-11-14T13:04:09;4.30;;;3.90;;
6739;SDS011;3407;49.882;10.920;2022-11-14T13:09:52;5.43;;;3.57;;
6739;SDS011;3407;49.882;10.920;2022-11-14T13:15:18;3.63;;;3.30;;
6739;SDS011;3407;49.882;10.920;2022-11-14T13:20:39;3.77;;;3.37;;
6739;SDS011;3407;49.882;10.920;2022-11-14T13:31:05;4.93;;;3.47;;
6739;SDS011;3407;49.882;10.920;2022-11-14T13:36:01;3.63;;;3.30;;
6739;SDS011;3407;49.882;10.920;2022-11-14T13:41:04;4.47;;;3.80;;
6739;SDS011;3407;49.882;10.920;2022-11-14T13:46:17;4.80;;;3.80;;
6739;SDS011;3407;49.882;10.920;2022-11-14T13:51:37;3.50;;;3.20;;
6739;SDS011;3407;49.882;10.920;2022-11-14T13:56:50;4.10;;;3.37;;
6739;SDS011;3407;49.882;10.920;2022-11-14T14:02:14;3.57;;;3.23;;
6739;SDS011;3407;49.882;10.920;2022-11-14T14:13:08;3.40;;;2.90;;
6739;SDS011;3407;49.882;10.920;2022-11-14T14:23:39;4.33;;;3.67;;
6739;SDS011;3407;49.882;10.920;2022-11-14T14:28:56;4.20;;;3.40;;
6739;SDS011;3407;49.882;10.920;2022-11-14T14:34:00;4.47;;;3.53;;
6739;SDS011;3407;49.882;10.920;2022-11-14T14:44:31;3.67;;;3.30;;
6739;SDS011;3407;49.882;10.920;2022-11-14T14:49:34;3.33;;;2.90;;
6739;SDS011;3407;49.882;10.920;2022-11-14T14:54:31;3.50;;;2.93;;
6739;SDS011;3407;49.882;10.920;2022-11-14T14:59:28;4.33;;;3.27;;
6739;SDS011;3407;49.882;10.920;2022-11-14T15:04:25;4.90;;;3.30;;
6739;SDS011;3407;49.882;10.920;2022-11-14T15:09:25;4.93;;;3.43;;
6739;SDS011;3407;49.882;10.920;2022-11-14T15:14:24;3.87;;;3.47;;
6739;SDS011;3407;49.882;10.920;2022-11-14T15:19:33;3.77;;;3.47;;
6739;SDS011;3407;49.882;10.920;2022-11-14T15:24:33;4.37;;;3.63;;
6739;SDS011;3407;49.882;10.920;2022-11-14T15:29:29;6.13;;;3.57;;
6739;SDS011;3407;49.882;10.920;2022-11-14T15:34:28;6.13;;;3.60;;
6739;SDS011;3407;49.882;10.920;2022-11-14T15:39:27;4.40;;;3.23;;
6739;SDS011;3407;49.882;10.920;2022-11-14T15:44:29;7.50;;;3.97;;
6739;SDS011;3407;49.882;10.920;2022-11-14T15:49:26;4.77;;;3.60;;
6739;SDS011;3407;49.882;10.920;2022-11-14T15:54:26;6.97;;;3.80;;
6739;SDS011;3407;49.882;10.920;2022-11-14T15:59:26;5.40;;;3.87;;
6739;SDS011;3407;49.882;10.920;2022-11-14T16:04:27;4.40;;;3.40;;
6739;SDS011;3407;49.882;10.920;2022-11-14T16:09:25;4.70;;;4.03;;
6739;SDS011;3407;49.882;10.920;2022-11-14T16:14:20;6.70;;;4.57;;
6739;SDS011;3407;49.882;10.920;2022-11-14T16:19:17;5.40;;;4.47;;
6739;SDS011;3407;49.882;10.920;2022-11-14T16:24:14;5.87;;;4.70;;
6739;SDS011;3407;49.882;10.920;2022-11-14T16:29:13;10.07;;;6.27;;
6739;SDS011;3407;49.882;10.920;2022-11-14T16:34:13;5.40;;;3.90;;
6739;SDS011;3407;49.882;10.920;2022-11-14T16:39:12;3.70;;;3.17;;
6739;SDS011;3407;49.882;10.920;2022-11-14T16:44:12;5.97;;;4.37;;
6739;SDS011;3407;49.882;10.920;2022-11-14T16:49:11;5.87;;;4.93;;
6739;SDS011;3407;49.882;10.920;2022-11-14T16:54:11;6.07;;;5.20;;
6739;SDS011;3407;49.882;10.920;2022-11-14T16:59:07;9.07;;;5.83;;
6739;SDS011;3407;49.882;10.920;2022-11-14T17:04:04;10.93;;;5.60;;
6739;SDS011;3407;49.882;10.920;2022-11-14T17:09:00;5.07;;;3.90;;
6739;SDS011;3407;49.882;10.920;2022-11-14T17:13:56;7.33;;;5.10;;
6739;SDS011;3407;49.882;10.920;2022-11-14T17:18:52;7.63;;;4.80;;
6739;SDS011;3407;49.882;10.920;2022-11-14T17:23:52;5.83;;;4.40;;
6739;SDS011;3407;49.882;10.920;2022-11-14T17:28:52;17.07;;;12.50;;
6739;SDS011;3407;49.882;10.920;2022-11-14T17:33:52;27.00;;;18.47;;
6739;SDS011;3407;49.882;10.920;2022-11-14T17:38:49;26.80;;;16.33;;
6739;SDS011;3407;49.882;10.920;2022-11-14T17:43:44;16.63;;;10.37;;
6739;SDS011;3407;49.882;10.920;2022-11-14T17:48:40;13.90;;;8.53;;
6739;SDS011;3407;49.882;10.920;2022-11-14T17:53:35;14.73;;;8.67;;
6739;SDS011;3407;49.882;10.920;2022-11-14T17:58:32;13.87;;;8.73;;
6739;SDS011;3407;49.882;10.920;2022-11-14T18:03:27;14.73;;;9.33;;
6739;SDS011;3407;49.882;10.920;2022-11-14T18:08:23;15.37;;;8.97;;
6739;SDS011;3407;49.882;10.920;2022-11-14T18:13:19;11.53;;;6.50;;
6739;SDS011;3407;49.882;10.920;2022-11-14T18:18:15;8.47;;;6.27;;
6739;SDS011;3407;49.882;10.920;2022-11-14T18:23:13;9.90;;;6.50;;
6739;SDS011;3407;49.882;10.920;2022-11-14T18:28:08;7.97;;;5.50;;
6739;SDS011;3407;49.882;10.920;2022-11-14T18:33:04;9.00;;;5.70;;
6739;SDS011;3407;49.882;10.920;2022-11-14T18:37:59;7.97;;;4.87;;
6739;SDS011;3407;49.882;10.920;2022-11-14T18:42:55;5.80;;;4.40;;
6739;SDS011;3407;49.882;10.920;2022-11-14T18:47:50;6.67;;;5.20;;
6739;SDS011;3407;49.882;10.920;2022-11-14T18:52:46;5.33;;;4.40;;
6739;SDS011;3407;49.882;10.920;2022-11-14T18:57:41;6.60;;;4.67;;
6739;SDS011;3407;49.882;10.920;2022-11-14T19:02:37;9.77;;;7.00;;
6739;SDS011;3407;49.882;10.920;2022-11-14T19:07:32;12.47;;;5.97;;
6739;SDS011;3407;49.882;10.920;2022-11-14T19:12:28;10.67;;;7.93;;
6739;SDS011;3407;49.882;10.920;2022-11-14T19:17:23;10.90;;;6.60;;
6739;SDS011;3407;49.882;10.920;2022-11-14T19:22:19;19.20;;;10.30;;
6739;SDS011;3407;49.882;10.920;2022-11-14T19:27:15;14.07;;;8.50;;
6739;SDS011;3407;49.882;10.920;2022-11-14T19:32:11;10.47;;;7.20;;
6739;SDS011;3407;49.882;10.920;2022-11-14T19:37:06;8.80;;;6.50;;
6739;SDS011;3407;49.882;10.920;2022-11-14T19:42:02;9.03;;;6.70;;
6739;SDS011;3407;49.882;10.920;2022-11-14T19:46:57;8.17;;;6.77;;
6739;SDS011;3407;49.882;10.920;2022-11-14T19:51:53;10.30;;;7.07;;
6739;SDS011;3407;49.882;10.920;2022-11-14T19:56:48;9.20;;;7.53;;
6739;SDS011;3407;49.882;10.920;2022-11-14T20:01:44;11.23;;;7.43;;
6739;SDS011;3407;49.882;10.920;2022-11-14T20:06:40;8.80;;;6.87;;
6739;SDS011;3407;49.882;10.920;2022-11-14T20:11:36;9.73;;;6.57;;
6739;SDS011;3407;49.882;10.920;2022-11-14T20:16:32;8.40;;;6.37;;
6739;SDS011;3407;49.882;10.920;2022-11-14T20:21:30;7.77;;;5.73;;
6739;SDS011;3407;49.882;10.920;2022-11-14T20:26:26;9.80;;;6.63;;
6739;SDS011;3407;49.882;10.920;2022-11-14T20:31:23;6.57;;;5.20;;
6739;SDS011;3407;49.882;10.920;2022-11-14T20:36:22;8.73;;;5.20;;
6739;SDS011;3407;49.882;10.920;2022-11-14T20:41:19;5.60;;;4.67;;
6739;SDS011;3407;49.882;10.920;2022-11-14T20:46:16;6.60;;;5.17;;
6739;SDS011;3407;49.882;10.920;2022-11-14T20:51:14;5.40;;;4.83;;
6739;SDS011;3407;49.882;10.920;2022-11-14T20:56:11;8.07;;;5.10;;
6739;SDS011;3407;49.882;10.920;2022-11-14T21:01:08;6.67;;;5.00;;
6739;SDS011;3407;49.882;10.920;2022-11-14T21:06:04;7.83;;;4.63;;
6739;SDS011;3407;49.882;10.920;2022-11-14T21:11:05;9.93;;;6.03;;
6739;SDS011;3407;49.882;10.920;2022-11-14T21:16:03;6.23;;;5.10;;
6739;SDS011;3407;49.882;10.920;2022-11-14T21:21:01;6.87;;;5.67;;
6739;SDS011;3407;49.882;10.920;2022-11-14T21:26:18;8.73;;;5.93;;
6739;SDS011;3407;49.882;10.920;2022-11-14T21:31:22;12.30;;;6.53;;
6739;SDS011;3407;49.882;10.920;2022-11-14T21:36:26;7.03;;;6.30;;
6739;SDS011;3407;49.882;10.920;2022-11-14T21:41:23;7.93;;;6.10;;
6739;SDS011;3407;49.882;10.920;2022-11-14T21:46:20;8.17;;;5.93;;
6739;SDS011;3407;49.882;10.920;2022-11-14T21:51:25;5.80;;;5.20;;
6739;SDS011;3407;49.882;10.920;2022-11-14T21:56:23;6.97;;;5.83;;
6739;SDS011;3407;49.882;10.920;2022-11-14T22:01:23;11.50;;;6.00;;
6739;SDS011;3407;49.882;10.920;2022-11-14T22:06:38;8.47;;;7.03;;
6739;SDS011;3407;49.882;10.920;2022-11-14T22:11:37;8.30;;;6.40;;
6739;SDS011;3407;49.882;10.920;2022-11-14T22:16:33;8.97;;;6.73;;
6739;SDS011;3407;49.882;10.920;2022-11-14T22:21:29;7.03;;;6.30;;
6739;SDS011;3407;49.882;10.920;2022-11-14T22:26:24;8.97;;;6.07;;
6739;SDS011;3407;49.882;10.920;2022-11-14T22:31:20;8.93;;;7.00;;
6739;SDS011;3407;49.882;10.920;2022-11-14T22:36:18;9.00;;;6.10;;
6739;SDS011;3407;49.882;10.920;2022-11-14T22:41:37;10.73;;;7.17;;
6739;SDS011;3407;49.882;10.920;2022-11-14T22:46:31;11.50;;;7.50;;
6739;SDS011;3407;49.882;10.920;2022-11-14T22:51:27;7.30;;;6.10;;
6739;SDS011;3407;49.882;10.920;2022-11-14T22:56:24;11.17;;;6.50;;
6739;SDS011;3407;49.882;10.920;2022-11-14T23:01:23;8.10;;;5.90;;
6739;SDS011;3407;49.882;10.920;2022-11-14T23:06:23;9.27;;;6.30;;
6739;SDS011;3407;49.882;10.920;2022-11-14T23:11:26;9.50;;;6.87;;
6739;SDS011;3407;49.882;10.920;2022-11-14T23:16:24;11.43;;;6.47;;
6739;SDS011;3407;49.882;10.920;2022-11-14T23:21:22;8.93;;;6.63;;
6739;SDS011;3407;49.882;10.920;2022-11-14T23:26:19;9.87;;;6.40;;
6739;SDS011;3407;49.882;10.920;2022-11-14T23:31:15;7.47;;;6.43;;
6739;SDS011;3407;49.882;10.920;2022-11-14T23:36:13;8.57;;;5.77;;
6739;SDS011;3407;49.882;10.920;2022-11-14T23:41:13;10.70;;;6.50;;
6739;SDS011;3407;49.882;10.920;2022-11-14T23:46:16;8.10;;;6.07;;
6739;SDS011;3407;49.882;10.920;2022-11-14T23:51:12;7.63;;;5.93;;
6739;SDS011;3407;49.882;10.920;2022-11-14T23:56:09;10.33;;;6.73;;
